Terminal Aerodrome Forecast
Issued by NWS Grand Junction, CO

Home | Current Version | Previous Version | Text Only | Print | Product List | Glossary On
Versions: 1 2 3 4 5 6 7 8 9 10 11 12 13 14 15 16 17 18 19 20 21 22 23 24 25 26 27 28
000
FTUS45 KGJT 270801 AAA
TAFGJT
TAF AMD
KGJT 270801Z 2708/2806 16015KT P6SM FEW080 OVC100
     FM271400 14006KT P6SM SCT070 OVC090
     FM271900 22015G25KT P6SM VCSH BKN070
     FM280100 27010G18KT P6SM VCSH BKN070=

USA.gov is the U.S. government's official web portal to all federal, state and local government web resources and services.